Va Bene — ZCIP8 — position and weather

sailwx.info

Track history (hours):
 
Tides and Currents Weather Stations Pressure Air Temp Water Temp Dewpoint Dewpoint Depression Visibility Wind Speed Wind Dir Waves Ship Positions

Va Bene

Last reported at 2014-Jul-29 11:33 UTC. Time now 2014-Sep-21 14:05 UTC.
Position N 37°53' E 023°20'.
Warning: this ship's position is 54 days out of date.

Length 50 m; draft 3.6 m.

Type: Pleasure craft. MMSI: 319854000.

Date/timePositionNaut miles runAvg speedWind from/ knotsBaromVisibWave heightAir tempDewpointWater temp
2014-Jul-29 11:33N 37°53' E 023°20'1312.5
2014-Jul-29 10:33N 37°51' E 023°36'1111.4
2014-Jul-29 09:33N 37°42' E 023°45'3812.5
2014-Jul-29 06:33N 37°32' E 024°31'1412.8
2014-Jul-29 05:27N 37°32' E 024°48'1112.7
2014-Jul-29 04:33N 37°31' E 025°03'1212.5
2014-Jul-29 03:33N 37°31' E 025°18'4 3.8
2014-Jul-29 02:29N 37°28' E 025°23'0 0.0
2014-Jul-29 01:05N 37°28' E 025°23'0 0.0
2014-Jul-29 00:26N 37°28' E 025°23'0 0.0
2014-Jul-28 23:29N 37°28' E 025°23'0 0.0
2014-Jul-28 21:23N 37°28' E 025°23'0 0.0
2014-Jul-28 18:11N 37°28' E 025°23'4 1.1
2014-Jul-28 14:33N 37°32' E 025°25'1312.7
2014-Jul-28 13:32N 37°35' E 025°41'1212.4
2014-Jul-28 12:33N 37°39' E 025°56'1312.8
2014-Jul-28 11:33N 37°42' E 026°11'1312.6
2014-Jul-28 10:33N 37°46' E 026°27'1412.5
2014-Jul-28 09:28N 37°50' E 026°43'  
2014-Jul-22 14:25N 37°20' E 026°37'  
Track history (hours):
 
Tides and Currents Weather Stations Pressure Air Temp Water Temp Dewpoint Dewpoint Depression Visibility Wind Speed Wind Dir Waves Ship Positions

Va Bene

Last reported at 2014-Jul-29 11:33 UTC. Time now 2014-Sep-21 14:05 UTC.
Position N 37°53' E 023°20'.
Warning: this ship's position is 54 days out of date.

Length 50 m; draft 3.6 m.

Type: Pleasure craft. MMSI: 319854000.

Date/timePositionNaut miles runAvg speedWind from/ knotsBaromVisibWave heightAir tempDewpointWater temp
2014-Jul-29 11:33N 37°53' E 023°20'1312.5
2014-Jul-29 10:33N 37°51' E 023°36'1111.4
2014-Jul-29 09:33N 37°42' E 023°45'3812.5
2014-Jul-29 06:33N 37°32' E 024°31'1412.8
2014-Jul-29 05:27N 37°32' E 024°48'1112.7
2014-Jul-29 04:33N 37°31' E 025°03'1212.5
2014-Jul-29 03:33N 37°31' E 025°18'4 3.8
2014-Jul-29 02:29N 37°28' E 025°23'0 0.0
2014-Jul-29 01:05N 37°28' E 025°23'0 0.0
2014-Jul-29 00:26N 37°28' E 025°23'0 0.0
2014-Jul-28 23:29N 37°28' E 025°23'0 0.0
2014-Jul-28 21:23N 37°28' E 025°23'0 0.0
2014-Jul-28 18:11N 37°28' E 025°23'4 1.1
2014-Jul-28 14:33N 37°32' E 025°25'1312.7
2014-Jul-28 13:32N 37°35' E 025°41'1212.4
2014-Jul-28 12:33N 37°39' E 025°56'1312.8
2014-Jul-28 11:33N 37°42' E 026°11'1312.6
2014-Jul-28 10:33N 37°46' E 026°27'1412.5
2014-Jul-28 09:28N 37°50' E 026°43'  
2014-Jul-22 14:25N 37°20' E 026°37'  

Dump ship's entire track history